sensor_id;sensor_type;location;lat;lon;timestamp;P1;durP1;ratioP1;P2;durP2;ratioP2
15848;SDS011;8024;48.708;9.394;2022-12-07T00:00:51;6.73;;;6.03;;
15848;SDS011;8024;48.708;9.394;2022-12-07T00:03:18;6.67;;;6.00;;
15848;SDS011;8024;48.708;9.394;2022-12-07T00:05:45;8.40;;;6.07;;
15848;SDS011;8024;48.708;9.394;2022-12-07T00:08:13;7.43;;;6.43;;
15848;SDS011;8024;48.708;9.394;2022-12-07T00:10:41;6.67;;;5.63;;
15848;SDS011;8024;48.708;9.394;2022-12-07T00:13:08;8.97;;;6.77;;
15848;SDS011;8024;48.708;9.394;2022-12-07T00:15:35;7.13;;;6.43;;
15848;SDS011;8024;48.708;9.394;2022-12-07T00:18:02;7.67;;;6.70;;
15848;SDS011;8024;48.708;9.394;2022-12-07T00:20:30;8.40;;;6.60;;
15848;SDS011;8024;48.708;9.394;2022-12-07T00:22:58;7.33;;;6.27;;
15848;SDS011;8024;48.708;9.394;2022-12-07T00:25:25;7.60;;;6.53;;
15848;SDS011;8024;48.708;9.394;2022-12-07T00:27:54;7.80;;;6.20;;
15848;SDS011;8024;48.708;9.394;2022-12-07T00:30:21;7.83;;;6.73;;
15848;SDS011;8024;48.708;9.394;2022-12-07T00:32:49;7.40;;;6.33;;
15848;SDS011;8024;48.708;9.394;2022-12-07T00:35:16;6.13;;;5.50;;
15848;SDS011;8024;48.708;9.394;2022-12-07T00:37:43;7.07;;;6.37;;
15848;SDS011;8024;48.708;9.394;2022-12-07T00:40:11;6.73;;;5.50;;
15848;SDS011;8024;48.708;9.394;2022-12-07T00:42:38;9.27;;;6.30;;
15848;SDS011;8024;48.708;9.394;2022-12-07T00:45:08;8.13;;;7.03;;
15848;SDS011;8024;48.708;9.394;2022-12-07T00:47:35;7.30;;;6.07;;
15848;SDS011;8024;48.708;9.394;2022-12-07T00:50:03;7.73;;;6.67;;
15848;SDS011;8024;48.708;9.394;2022-12-07T00:52:30;8.20;;;6.17;;
15848;SDS011;8024;48.708;9.394;2022-12-07T00:54:57;7.80;;;6.30;;
15848;SDS011;8024;48.708;9.394;2022-12-07T00:57:25;9.87;;;7.20;;
15848;SDS011;8024;48.708;9.394;2022-12-07T00:59:52;8.33;;;6.83;;
15848;SDS011;8024;48.708;9.394;2022-12-07T01:02:21;8.47;;;6.87;;
15848;SDS011;8024;48.708;9.394;2022-12-07T01:04:49;11.37;;;7.70;;
15848;SDS011;8024;48.708;9.394;2022-12-07T01:07:16;9.47;;;7.50;;
15848;SDS011;8024;48.708;9.394;2022-12-07T01:09:43;9.60;;;7.70;;
15848;SDS011;8024;48.708;9.394;2022-12-07T01:12:10;9.70;;;7.83;;
15848;SDS011;8024;48.708;9.394;2022-12-07T01:14:37;8.23;;;7.33;;
15848;SDS011;8024;48.708;9.394;2022-12-07T01:17:05;9.40;;;7.90;;
15848;SDS011;8024;48.708;9.394;2022-12-07T01:19:33;8.63;;;7.47;;
15848;SDS011;8024;48.708;9.394;2022-12-07T01:22:00;8.67;;;7.23;;
15848;SDS011;8024;48.708;9.394;2022-12-07T01:24:27;7.90;;;6.90;;
15848;SDS011;8024;48.708;9.394;2022-12-07T01:26:54;8.83;;;6.80;;
15848;SDS011;8024;48.708;9.394;2022-12-07T01:29:22;9.67;;;7.47;;
15848;SDS011;8024;48.708;9.394;2022-12-07T01:31:49;8.60;;;7.77;;
15848;SDS011;8024;48.708;9.394;2022-12-07T01:34:16;8.20;;;6.53;;
15848;SDS011;8024;48.708;9.394;2022-12-07T01:36:44;7.33;;;6.50;;
15848;SDS011;8024;48.708;9.394;2022-12-07T01:39:12;8.80;;;7.70;;
15848;SDS011;8024;48.708;9.394;2022-12-07T01:41:40;8.30;;;7.37;;
15848;SDS011;8024;48.708;9.394;2022-12-07T01:44:13;8.73;;;7.47;;
15848;SDS011;8024;48.708;9.394;2022-12-07T01:46:43;7.93;;;6.50;;
15848;SDS011;8024;48.708;9.394;2022-12-07T01:49:13;9.43;;;7.00;;
15848;SDS011;8024;48.708;9.394;2022-12-07T01:51:49;10.00;;;8.00;;
15848;SDS011;8024;48.708;9.394;2022-12-07T01:54:20;9.23;;;7.37;;
15848;SDS011;8024;48.708;9.394;2022-12-07T01:56:49;8.73;;;7.80;;
15848;SDS011;8024;48.708;9.394;2022-12-07T01:59:18;9.80;;;7.57;;
15848;SDS011;8024;48.708;9.394;2022-12-07T02:01:50;10.00;;;7.93;;
15848;SDS011;8024;48.708;9.394;2022-12-07T02:04:18;8.57;;;7.00;;
15848;SDS011;8024;48.708;9.394;2022-12-07T02:06:47;8.03;;;7.07;;
15848;SDS011;8024;48.708;9.394;2022-12-07T02:09:16;10.00;;;8.00;;
15848;SDS011;8024;48.708;9.394;2022-12-07T02:11:43;10.27;;;7.87;;
15848;SDS011;8024;48.708;9.394;2022-12-07T02:14:10;10.93;;;7.73;;
15848;SDS011;8024;48.708;9.394;2022-12-07T02:16:40;9.53;;;7.33;;
15848;SDS011;8024;48.708;9.394;2022-12-07T02:19:32;9.43;;;7.63;;
15848;SDS011;8024;48.708;9.394;2022-12-07T02:22:22;10.87;;;8.40;;
15848;SDS011;8024;48.708;9.394;2022-12-07T02:25:13;11.37;;;8.13;;
15848;SDS011;8024;48.708;9.394;2022-12-07T02:27:56;10.53;;;8.03;;
15848;SDS011;8024;48.708;9.394;2022-12-07T02:30:31;8.33;;;6.70;;
15848;SDS011;8024;48.708;9.394;2022-12-07T02:33:00;13.60;;;8.60;;
15848;SDS011;8024;48.708;9.394;2022-12-07T02:35:32;10.77;;;8.33;;
15848;SDS011;8024;48.708;9.394;2022-12-07T02:38:08;11.70;;;7.93;;
15848;SDS011;8024;48.708;9.394;2022-12-07T02:40:40;9.40;;;8.03;;
15848;SDS011;8024;48.708;9.394;2022-12-07T02:43:11;9.33;;;7.70;;
15848;SDS011;8024;48.708;9.394;2022-12-07T02:45:43;10.63;;;8.13;;
15848;SDS011;8024;48.708;9.394;2022-12-07T02:48:13;11.33;;;8.43;;
15848;SDS011;8024;48.708;9.394;2022-12-07T02:50:44;11.43;;;8.83;;
15848;SDS011;8024;48.708;9.394;2022-12-07T02:55:57;9.80;;;8.03;;
15848;SDS011;8024;48.708;9.394;2022-12-07T02:58:30;10.30;;;7.77;;
15848;SDS011;8024;48.708;9.394;2022-12-07T03:01:08;10.43;;;8.10;;
15848;SDS011;8024;48.708;9.394;2022-12-07T03:03:41;9.43;;;7.63;;
15848;SDS011;8024;48.708;9.394;2022-12-07T03:06:13;11.60;;;7.80;;
15848;SDS011;8024;48.708;9.394;2022-12-07T03:08:48;10.50;;;7.77;;
15848;SDS011;8024;48.708;9.394;2022-12-07T03:11:21;8.93;;;7.10;;
15848;SDS011;8024;48.708;9.394;2022-12-07T03:13:53;9.23;;;8.07;;
15848;SDS011;8024;48.708;9.394;2022-12-07T03:16:28;10.13;;;7.40;;
15848;SDS011;8024;48.708;9.394;2022-12-07T03:18:58;9.47;;;7.87;;
15848;SDS011;8024;48.708;9.394;2022-12-07T03:21:29;10.90;;;7.87;;
15848;SDS011;8024;48.708;9.394;2022-12-07T03:24:00;8.77;;;7.57;;
15848;SDS011;8024;48.708;9.394;2022-12-07T03:26:32;9.37;;;8.00;;
15848;SDS011;8024;48.708;9.394;2022-12-07T03:29:04;11.23;;;7.93;;
15848;SDS011;8024;48.708;9.394;2022-12-07T03:31:37;9.80;;;7.60;;
15848;SDS011;8024;48.708;9.394;2022-12-07T03:34:07;8.00;;;7.20;;
15848;SDS011;8024;48.708;9.394;2022-12-07T03:36:39;12.43;;;7.60;;
15848;SDS011;8024;48.708;9.394;2022-12-07T03:39:12;9.20;;;7.63;;
15848;SDS011;8024;48.708;9.394;2022-12-07T03:41:45;8.70;;;6.93;;
15848;SDS011;8024;48.708;9.394;2022-12-07T03:44:12;9.07;;;6.73;;
15848;SDS011;8024;48.708;9.394;2022-12-07T03:46:44;8.67;;;6.87;;
15848;SDS011;8024;48.708;9.394;2022-12-07T03:49:16;9.90;;;7.47;;
15848;SDS011;8024;48.708;9.394;2022-12-07T03:51:51;11.17;;;8.87;;
15848;SDS011;8024;48.708;9.394;2022-12-07T03:54:24;9.47;;;7.33;;
15848;SDS011;8024;48.708;9.394;2022-12-07T03:56:54;10.57;;;7.57;;
15848;SDS011;8024;48.708;9.394;2022-12-07T03:59:23;12.57;;;8.00;;
15848;SDS011;8024;48.708;9.394;2022-12-07T04:01:54;10.60;;;8.07;;
15848;SDS011;8024;48.708;9.394;2022-12-07T04:04:23;9.87;;;7.93;;
15848;SDS011;8024;48.708;9.394;2022-12-07T04:06:51;9.30;;;7.37;;
15848;SDS011;8024;48.708;9.394;2022-12-07T04:09:18;10.63;;;7.57;;
15848;SDS011;8024;48.708;9.394;2022-12-07T04:11:46;8.63;;;7.27;;
15848;SDS011;8024;48.708;9.394;2022-12-07T04:14:13;9.50;;;7.67;;
15848;SDS011;8024;48.708;9.394;2022-12-07T04:16:46;9.00;;;7.93;;
15848;SDS011;8024;48.708;9.394;2022-12-07T04:19:16;9.50;;;8.03;;
15848;SDS011;8024;48.708;9.394;2022-12-07T04:21:44;10.80;;;8.27;;
15848;SDS011;8024;48.708;9.394;2022-12-07T04:24:12;10.70;;;8.60;;
15848;SDS011;8024;48.708;9.394;2022-12-07T04:26:40;9.67;;;7.90;;
15848;SDS011;8024;48.708;9.394;2022-12-07T04:29:08;9.43;;;7.67;;
15848;SDS011;8024;48.708;9.394;2022-12-07T04:31:35;12.27;;;8.47;;
15848;SDS011;8024;48.708;9.394;2022-12-07T04:34:03;11.97;;;8.77;;
15848;SDS011;8024;48.708;9.394;2022-12-07T04:36:32;10.93;;;8.30;;
15848;SDS011;8024;48.708;9.394;2022-12-07T04:39:00;10.00;;;7.73;;
15848;SDS011;8024;48.708;9.394;2022-12-07T04:41:28;10.60;;;7.83;;
15848;SDS011;8024;48.708;9.394;2022-12-07T04:43:56;9.87;;;8.20;;
15848;SDS011;8024;48.708;9.394;2022-12-07T04:46:25;12.80;;;8.30;;
15848;SDS011;8024;48.708;9.394;2022-12-07T04:48:53;11.43;;;7.73;;
15848;SDS011;8024;48.708;9.394;2022-12-07T04:51:21;10.17;;;7.90;;
15848;SDS011;8024;48.708;9.394;2022-12-07T04:53:51;11.23;;;8.27;;
15848;SDS011;8024;48.708;9.394;2022-12-07T04:56:19;12.13;;;8.27;;
15848;SDS011;8024;48.708;9.394;2022-12-07T04:58:47;10.37;;;8.50;;
15848;SDS011;8024;48.708;9.394;2022-12-07T05:01:15;9.83;;;7.37;;
15848;SDS011;8024;48.708;9.394;2022-12-07T05:03:43;12.07;;;8.30;;
15848;SDS011;8024;48.708;9.394;2022-12-07T05:06:11;8.33;;;7.43;;
15848;SDS011;8024;48.708;9.394;2022-12-07T05:08:39;11.13;;;7.50;;
15848;SDS011;8024;48.708;9.394;2022-12-07T05:11:07;10.40;;;8.13;;
15848;SDS011;8024;48.708;9.394;2022-12-07T05:13:55;9.63;;;7.17;;
15848;SDS011;8024;48.708;9.394;2022-12-07T05:16:22;10.43;;;7.83;;
15848;SDS011;8024;48.708;9.394;2022-12-07T05:18:50;10.53;;;8.47;;
15848;SDS011;8024;48.708;9.394;2022-12-07T05:21:17;10.03;;;7.63;;
15848;SDS011;8024;48.708;9.394;2022-12-07T05:23:44;10.70;;;7.97;;
15848;SDS011;8024;48.708;9.394;2022-12-07T05:26:13;13.73;;;9.37;;
15848;SDS011;8024;48.708;9.394;2022-12-07T05:28:40;12.70;;;8.90;;
15848;SDS011;8024;48.708;9.394;2022-12-07T05:31:07;12.13;;;9.13;;
15848;SDS011;8024;48.708;9.394;2022-12-07T05:33:34;12.83;;;9.73;;
15848;SDS011;8024;48.708;9.394;2022-12-07T05:36:02;12.07;;;8.50;;
15848;SDS011;8024;48.708;9.394;2022-12-07T05:38:30;11.37;;;8.97;;
15848;SDS011;8024;48.708;9.394;2022-12-07T05:40:59;11.47;;;8.97;;
15848;SDS011;8024;48.708;9.394;2022-12-07T05:43:29;12.33;;;8.87;;
15848;SDS011;8024;48.708;9.394;2022-12-07T05:45:57;10.97;;;8.90;;
15848;SDS011;8024;48.708;9.394;2022-12-07T05:48:24;11.60;;;8.80;;
15848;SDS011;8024;48.708;9.394;2022-12-07T05:50:52;11.50;;;8.43;;
15848;SDS011;8024;48.708;9.394;2022-12-07T05:53:19;11.83;;;8.47;;
15848;SDS011;8024;48.708;9.394;2022-12-07T05:55:46;10.30;;;7.60;;
15848;SDS011;8024;48.708;9.394;2022-12-07T05:58:13;11.10;;;8.50;;
15848;SDS011;8024;48.708;9.394;2022-12-07T06:00:59;11.50;;;7.70;;
15848;SDS011;8024;48.708;9.394;2022-12-07T06:03:26;10.30;;;8.80;;
15848;SDS011;8024;48.708;9.394;2022-12-07T06:05:54;9.23;;;8.20;;
15848;SDS011;8024;48.708;9.394;2022-12-07T06:08:21;10.97;;;8.60;;
15848;SDS011;8024;48.708;9.394;2022-12-07T06:10:48;10.83;;;8.97;;
15848;SDS011;8024;48.708;9.394;2022-12-07T06:13:36;10.00;;;8.03;;
15848;SDS011;8024;48.708;9.394;2022-12-07T06:16:04;12.37;;;8.73;;
15848;SDS011;8024;48.708;9.394;2022-12-07T06:18:32;13.07;;;8.90;;
15848;SDS011;8024;48.708;9.394;2022-12-07T06:20:59;8.93;;;7.50;;
15848;SDS011;8024;48.708;9.394;2022-12-07T06:23:26;11.80;;;8.37;;
15848;SDS011;8024;48.708;9.394;2022-12-07T06:25:54;10.10;;;8.17;;
15848;SDS011;8024;48.708;9.394;2022-12-07T06:28:21;11.47;;;8.40;;
15848;SDS011;8024;48.708;9.394;2022-12-07T06:30:56;11.17;;;8.27;;
15848;SDS011;8024;48.708;9.394;2022-12-07T06:33:25;11.27;;;8.20;;
15848;SDS011;8024;48.708;9.394;2022-12-07T06:35:53;11.67;;;8.30;;
15848;SDS011;8024;48.708;9.394;2022-12-07T06:38:20;9.80;;;8.17;;
15848;SDS011;8024;48.708;9.394;2022-12-07T06:40:47;11.90;;;8.77;;
15848;SDS011;8024;48.708;9.394;2022-12-07T06:43:15;11.60;;;8.73;;
15848;SDS011;8024;48.708;9.394;2022-12-07T06:45:42;10.40;;;8.07;;
15848;SDS011;8024;48.708;9.394;2022-12-07T06:48:09;9.77;;;8.47;;
15848;SDS011;8024;48.708;9.394;2022-12-07T06:50:38;10.70;;;8.43;;
15848;SDS011;8024;48.708;9.394;2022-12-07T06:53:05;11.57;;;8.47;;
15848;SDS011;8024;48.708;9.394;2022-12-07T06:55:32;11.50;;;8.60;;
15848;SDS011;8024;48.708;9.394;2022-12-07T06:57:59;10.83;;;8.90;;
15848;SDS011;8024;48.708;9.394;2022-12-07T07:00:27;11.43;;;8.27;;
15848;SDS011;8024;48.708;9.394;2022-12-07T07:02:54;9.77;;;7.63;;
15848;SDS011;8024;48.708;9.394;2022-12-07T07:05:22;9.20;;;7.70;;
15848;SDS011;8024;48.708;9.394;2022-12-07T07:07:50;9.80;;;8.37;;
15848;SDS011;8024;48.708;9.394;2022-12-07T07:10:17;10.20;;;7.53;;
15848;SDS011;8024;48.708;9.394;2022-12-07T07:12:45;10.13;;;8.23;;
15848;SDS011;8024;48.708;9.394;2022-12-07T07:15:12;12.60;;;8.53;;
15848;SDS011;8024;48.708;9.394;2022-12-07T07:17:39;10.03;;;8.00;;
15848;SDS011;8024;48.708;9.394;2022-12-07T07:20:06;9.93;;;8.40;;
15848;SDS011;8024;48.708;9.394;2022-12-07T07:22:34;10.57;;;8.93;;
15848;SDS011;8024;48.708;9.394;2022-12-07T07:25:03;10.53;;;8.73;;
15848;SDS011;8024;48.708;9.394;2022-12-07T07:27:30;10.20;;;8.73;;
15848;SDS011;8024;48.708;9.394;2022-12-07T07:29:58;9.13;;;7.83;;
15848;SDS011;8024;48.708;9.394;2022-12-07T07:32:25;12.73;;;9.13;;
15848;SDS011;8024;48.708;9.394;2022-12-07T07:34:53;10.87;;;8.53;;
15848;SDS011;8024;48.708;9.394;2022-12-07T07:37:20;11.17;;;7.77;;
15848;SDS011;8024;48.708;9.394;2022-12-07T07:42:20;9.87;;;7.73;;
15848;SDS011;8024;48.708;9.394;2022-12-07T07:44:47;14.00;;;8.87;;
15848;SDS011;8024;48.708;9.394;2022-12-07T07:47:15;11.67;;;7.63;;
15848;SDS011;8024;48.708;9.394;2022-12-07T07:49:42;11.17;;;8.17;;
15848;SDS011;8024;48.708;9.394;2022-12-07T07:52:09;11.63;;;8.07;;
15848;SDS011;8024;48.708;9.394;2022-12-07T07:54:36;9.80;;;8.03;;
15848;SDS011;8024;48.708;9.394;2022-12-07T07:57:03;10.17;;;7.90;;
15848;SDS011;8024;48.708;9.394;2022-12-07T07:59:32;9.37;;;7.70;;
15848;SDS011;8024;48.708;9.394;2022-12-07T08:01:59;11.30;;;8.03;;
15848;SDS011;8024;48.708;9.394;2022-12-07T08:04:26;9.93;;;7.40;;
15848;SDS011;8024;48.708;9.394;2022-12-07T08:06:53;10.67;;;8.13;;
15848;SDS011;8024;48.708;9.394;2022-12-07T08:09:20;12.93;;;8.40;;
15848;SDS011;8024;48.708;9.394;2022-12-07T08:11:48;13.97;;;10.57;;
15848;SDS011;8024;48.708;9.394;2022-12-07T08:14:15;8.17;;;7.17;;
15848;SDS011;8024;48.708;9.394;2022-12-07T08:16:43;9.30;;;7.40;;
15848;SDS011;8024;48.708;9.394;2022-12-07T08:19:10;10.33;;;8.53;;
15848;SDS011;8024;48.708;9.394;2022-12-07T08:21:38;8.73;;;7.67;;
15848;SDS011;8024;48.708;9.394;2022-12-07T08:24:05;9.63;;;7.80;;
15848;SDS011;8024;48.708;9.394;2022-12-07T08:26:32;10.73;;;8.10;;
15848;SDS011;8024;48.708;9.394;2022-12-07T08:28:59;10.53;;;7.70;;
15848;SDS011;8024;48.708;9.394;2022-12-07T08:31:26;8.50;;;7.23;;
15848;SDS011;8024;48.708;9.394;2022-12-07T08:33:55;11.23;;;7.73;;
15848;SDS011;8024;48.708;9.394;2022-12-07T08:36:23;7.63;;;6.80;;
15848;SDS011;8024;48.708;9.394;2022-12-07T08:38:50;8.83;;;6.90;;
15848;SDS011;8024;48.708;9.394;2022-12-07T08:41:17;9.40;;;7.43;;
15848;SDS011;8024;48.708;9.394;2022-12-07T08:43:44;8.50;;;6.73;;
15848;SDS011;8024;48.708;9.394;2022-12-07T08:46:13;8.87;;;7.60;;
15848;SDS011;8024;48.708;9.394;2022-12-07T08:48:45;9.10;;;7.20;;
15848;SDS011;8024;48.708;9.394;2022-12-07T08:51:17;9.00;;;7.20;;
15848;SDS011;8024;48.708;9.394;2022-12-07T08:53:45;8.47;;;6.67;;
15848;SDS011;8024;48.708;9.394;2022-12-07T08:56:12;10.50;;;7.33;;
15848;SDS011;8024;48.708;9.394;2022-12-07T08:58:40;9.57;;;7.47;;
15848;SDS011;8024;48.708;9.394;2022-12-07T09:01:07;8.97;;;7.20;;
15848;SDS011;8024;48.708;9.394;2022-12-07T09:03:34;8.43;;;7.20;;
15848;SDS011;8024;48.708;9.394;2022-12-07T09:06:02;10.77;;;7.90;;
15848;SDS011;8024;48.708;9.394;2022-12-07T09:08:31;9.53;;;7.83;;
15848;SDS011;8024;48.708;9.394;2022-12-07T09:11:01;8.10;;;7.30;;
15848;SDS011;8024;48.708;9.394;2022-12-07T09:13:28;9.30;;;8.00;;
15848;SDS011;8024;48.708;9.394;2022-12-07T09:15:55;9.07;;;7.17;;
15848;SDS011;8024;48.708;9.394;2022-12-07T09:18:22;9.90;;;7.10;;
15848;SDS011;8024;48.708;9.394;2022-12-07T09:20:50;9.73;;;6.67;;
15848;SDS011;8024;48.708;9.394;2022-12-07T09:23:17;10.93;;;7.13;;
15848;SDS011;8024;48.708;9.394;2022-12-07T09:25:45;9.90;;;7.57;;
15848;SDS011;8024;48.708;9.394;2022-12-07T09:28:13;10.87;;;7.87;;
15848;SDS011;8024;48.708;9.394;2022-12-07T09:30:44;9.57;;;7.70;;
15848;SDS011;8024;48.708;9.394;2022-12-07T09:33:12;8.33;;;6.93;;
15848;SDS011;8024;48.708;9.394;2022-12-07T09:35:43;7.87;;;6.90;;
15848;SDS011;8024;48.708;9.394;2022-12-07T09:38:11;9.23;;;6.80;;
15848;SDS011;8024;48.708;9.394;2022-12-07T09:40:39;9.20;;;6.70;;
15848;SDS011;8024;48.708;9.394;2022-12-07T09:43:12;8.33;;;7.40;;
15848;SDS011;8024;48.708;9.394;2022-12-07T09:45:41;10.17;;;6.93;;
15848;SDS011;8024;48.708;9.394;2022-12-07T09:48:12;10.27;;;7.10;;
15848;SDS011;8024;48.708;9.394;2022-12-07T09:50:44;9.30;;;6.33;;
15848;SDS011;8024;48.708;9.394;2022-12-07T09:53:13;7.63;;;5.90;;
15848;SDS011;8024;48.708;9.394;2022-12-07T09:55:46;9.17;;;6.67;;
15848;SDS011;8024;48.708;9.394;2022-12-07T09:58:17;9.27;;;6.63;;
15848;SDS011;8024;48.708;9.394;2022-12-07T10:00:47;6.73;;;5.63;;
15848;SDS011;8024;48.708;9.394;2022-12-07T10:03:15;7.30;;;6.00;;
15848;SDS011;8024;48.708;9.394;2022-12-07T10:05:42;7.93;;;5.80;;
15848;SDS011;8024;48.708;9.394;2022-12-07T10:08:11;6.80;;;5.77;;
15848;SDS011;8024;48.708;9.394;2022-12-07T10:10:41;6.97;;;5.43;;
15848;SDS011;8024;48.708;9.394;2022-12-07T10:13:08;7.90;;;5.73;;
15848;SDS011;8024;48.708;9.394;2022-12-07T10:15:42;7.37;;;6.57;;
15848;SDS011;8024;48.708;9.394;2022-12-07T10:18:18;9.50;;;6.40;;
15848;SDS011;8024;48.708;9.394;2022-12-07T10:21:03;6.57;;;5.83;;
15848;SDS011;8024;48.708;9.394;2022-12-07T10:23:36;7.73;;;5.83;;
15848;SDS011;8024;48.708;9.394;2022-12-07T10:26:20;7.67;;;4.80;;
15848;SDS011;8024;48.708;9.394;2022-12-07T10:28:53;6.07;;;5.27;;
15848;SDS011;8024;48.708;9.394;2022-12-07T10:31:23;6.50;;;4.90;;
15848;SDS011;8024;48.708;9.394;2022-12-07T10:33:51;5.17;;;4.67;;
15848;SDS011;8024;48.708;9.394;2022-12-07T10:36:21;6.83;;;4.83;;
15848;SDS011;8024;48.708;9.394;2022-12-07T10:38:50;6.60;;;5.53;;
15848;SDS011;8024;48.708;9.394;2022-12-07T10:41:19;6.93;;;5.23;;
15848;SDS011;8024;48.708;9.394;2022-12-07T10:43:49;5.97;;;5.37;;
15848;SDS011;8024;48.708;9.394;2022-12-07T10:46:22;6.23;;;5.50;;
15848;SDS011;8024;48.708;9.394;2022-12-07T10:49:18;5.93;;;5.20;;
15848;SDS011;8024;48.708;9.394;2022-12-07T10:52:05;6.70;;;5.67;;
15848;SDS011;8024;48.708;9.394;2022-12-07T10:54:42;6.73;;;5.57;;
15848;SDS011;8024;48.708;9.394;2022-12-07T10:57:19;7.13;;;5.27;;
15848;SDS011;8024;48.708;9.394;2022-12-07T10:59:58;6.37;;;5.20;;
15848;SDS011;8024;48.708;9.394;2022-12-07T11:02:33;6.00;;;5.40;;
15848;SDS011;8024;48.708;9.394;2022-12-07T11:05:16;6.60;;;5.77;;
15848;SDS011;8024;48.708;9.394;2022-12-07T11:07:52;6.10;;;5.10;;
15848;SDS011;8024;48.708;9.394;2022-12-07T11:10:28;6.63;;;5.47;;
15848;SDS011;8024;48.708;9.394;2022-12-07T11:13:04;6.30;;;5.30;;
15848;SDS011;8024;48.708;9.394;2022-12-07T11:18:48;7.03;;;4.67;;
15848;SDS011;8024;48.708;9.394;2022-12-07T11:21:28;8.37;;;5.33;;
15848;SDS011;8024;48.708;9.394;2022-12-07T11:24:01;6.50;;;5.00;;
15848;SDS011;8024;48.708;9.394;2022-12-07T11:26:41;6.73;;;5.57;;
15848;SDS011;8024;48.708;9.394;2022-12-07T11:32:17;9.87;;;4.97;;
15848;SDS011;8024;48.708;9.394;2022-12-07T11:34:53;5.97;;;4.77;;
15848;SDS011;8024;48.708;9.394;2022-12-07T11:37:30;6.37;;;5.00;;
15848;SDS011;8024;48.708;9.394;2022-12-07T11:40:00;5.43;;;4.70;;
15848;SDS011;8024;48.708;9.394;2022-12-07T11:42:31;7.57;;;5.10;;
15848;SDS011;8024;48.708;9.394;2022-12-07T11:45:04;5.57;;;4.27;;
15848;SDS011;8024;48.708;9.394;2022-12-07T11:47:41;5.37;;;4.40;;
15848;SDS011;8024;48.708;9.394;2022-12-07T11:50:26;6.70;;;4.50;;
15848;SDS011;8024;48.708;9.394;2022-12-07T11:53:00;4.87;;;4.40;;
15848;SDS011;8024;48.708;9.394;2022-12-07T11:55:30;6.33;;;4.87;;
15848;SDS011;8024;48.708;9.394;2022-12-07T11:58:12;5.80;;;4.70;;
15848;SDS011;8024;48.708;9.394;2022-12-07T12:00:47;7.20;;;4.30;;
15848;SDS011;8024;48.708;9.394;2022-12-07T12:03:20;6.47;;;4.70;;
15848;SDS011;8024;48.708;9.394;2022-12-07T12:05:55;5.20;;;4.13;;
15848;SDS011;8024;48.708;9.394;2022-12-07T12:08:25;5.73;;;4.20;;
15848;SDS011;8024;48.708;9.394;2022-12-07T12:11:00;4.77;;;4.23;;
15848;SDS011;8024;48.708;9.394;2022-12-07T12:13:43;5.07;;;3.93;;
15848;SDS011;8024;48.708;9.394;2022-12-07T12:19:34;4.70;;;4.20;;
15848;SDS011;8024;48.708;9.394;2022-12-07T12:22:10;5.07;;;4.27;;
15848;SDS011;8024;48.708;9.394;2022-12-07T12:24:41;5.53;;;4.30;;
15848;SDS011;8024;48.708;9.394;2022-12-07T12:27:23;5.73;;;4.17;;
15848;SDS011;8024;48.708;9.394;2022-12-07T12:29:55;3.50;;;3.20;;
15848;SDS011;8024;48.708;9.394;2022-12-07T12:32:35;4.17;;;3.30;;
15848;SDS011;8024;48.708;9.394;2022-12-07T12:35:22;4.17;;;3.23;;
15848;SDS011;8024;48.708;9.394;2022-12-07T12:37:56;4.90;;;3.87;;
15848;SDS011;8024;48.708;9.394;2022-12-07T12:41:04;4.27;;;3.43;;
15848;SDS011;8024;48.708;9.394;2022-12-07T12:43:48;4.40;;;3.50;;
15848;SDS011;8024;48.708;9.394;2022-12-07T12:49:33;3.57;;;3.27;;
15848;SDS011;8024;48.708;9.394;2022-12-07T12:52:45;5.13;;;4.07;;
15848;SDS011;8024;48.708;9.394;2022-12-07T12:55:16;4.03;;;3.20;;
15848;SDS011;8024;48.708;9.394;2022-12-07T13:04:23;4.70;;;3.63;;
15848;SDS011;8024;48.708;9.394;2022-12-07T13:07:12;4.40;;;3.53;;
15848;SDS011;8024;48.708;9.394;2022-12-07T13:09:55;5.50;;;3.77;;
15848;SDS011;8024;48.708;9.394;2022-12-07T13:12:23;4.33;;;3.93;;
15848;SDS011;8024;48.708;9.394;2022-12-07T13:14:56;3.83;;;3.47;;
15848;SDS011;8024;48.708;9.394;2022-12-07T13:20:46;3.63;;;3.27;;
15848;SDS011;8024;48.708;9.394;2022-12-07T13:23:16;3.73;;;3.27;;
15848;SDS011;8024;48.708;9.394;2022-12-07T13:28:42;6.73;;;4.30;;
15848;SDS011;8024;48.708;9.394;2022-12-07T13:31:14;6.77;;;4.60;;
15848;SDS011;8024;48.708;9.394;2022-12-07T13:33:49;7.37;;;5.43;;
15848;SDS011;8024;48.708;9.394;2022-12-07T13:36:18;7.63;;;5.50;;
15848;SDS011;8024;48.708;9.394;2022-12-07T13:38:48;7.10;;;4.97;;
15848;SDS011;8024;48.708;9.394;2022-12-07T13:41:18;6.57;;;5.07;;
15848;SDS011;8024;48.708;9.394;2022-12-07T13:43:51;6.47;;;5.03;;
15848;SDS011;8024;48.708;9.394;2022-12-07T13:46:23;7.00;;;5.40;;
15848;SDS011;8024;48.708;9.394;2022-12-07T13:48:54;6.57;;;5.23;;
15848;SDS011;8024;48.708;9.394;2022-12-07T13:51:22;7.77;;;5.10;;
15848;SDS011;8024;48.708;9.394;2022-12-07T13:53:52;7.83;;;5.83;;
15848;SDS011;8024;48.708;9.394;2022-12-07T13:56:21;9.70;;;6.93;;
15848;SDS011;8024;48.708;9.394;2022-12-07T13:58:51;6.53;;;4.53;;
15848;SDS011;8024;48.708;9.394;2022-12-07T14:01:21;6.13;;;4.87;;
15848;SDS011;8024;48.708;9.394;2022-12-07T14:03:50;6.50;;;4.90;;
15848;SDS011;8024;48.708;9.394;2022-12-07T14:06:22;6.33;;;5.07;;
15848;SDS011;8024;48.708;9.394;2022-12-07T14:09:06;6.43;;;4.70;;
15848;SDS011;8024;48.708;9.394;2022-12-07T14:11:35;4.77;;;4.30;;
15848;SDS011;8024;48.708;9.394;2022-12-07T14:14:03;7.37;;;4.90;;
15848;SDS011;8024;48.708;9.394;2022-12-07T14:16:33;6.70;;;4.90;;
15848;SDS011;8024;48.708;9.394;2022-12-07T14:19:04;9.23;;;5.53;;
15848;SDS011;8024;48.708;9.394;2022-12-07T14:22:08;5.93;;;4.67;;
15848;SDS011;8024;48.708;9.394;2022-12-07T14:24:43;6.87;;;4.63;;
15848;SDS011;8024;48.708;9.394;2022-12-07T14:27:16;5.43;;;4.63;;
15848;SDS011;8024;48.708;9.394;2022-12-07T14:29:45;6.23;;;5.00;;
15848;SDS011;8024;48.708;9.394;2022-12-07T14:32:22;5.37;;;4.73;;
15848;SDS011;8024;48.708;9.394;2022-12-07T14:34:57;5.33;;;4.83;;
15848;SDS011;8024;48.708;9.394;2022-12-07T14:37:26;6.67;;;5.03;;
15848;SDS011;8024;48.708;9.394;2022-12-07T14:39:54;6.13;;;5.63;;
15848;SDS011;8024;48.708;9.394;2022-12-07T14:42:22;11.80;;;7.50;;
15848;SDS011;8024;48.708;9.394;2022-12-07T14:44:52;13.77;;;5.97;;
15848;SDS011;8024;48.708;9.394;2022-12-07T14:47:21;7.20;;;5.50;;
15848;SDS011;8024;48.708;9.394;2022-12-07T14:49:48;7.93;;;5.80;;
15848;SDS011;8024;48.708;9.394;2022-12-07T14:52:17;6.03;;;5.20;;
15848;SDS011;8024;48.708;9.394;2022-12-07T14:54:46;7.20;;;5.20;;
15848;SDS011;8024;48.708;9.394;2022-12-07T14:57:14;5.07;;;4.40;;
15848;SDS011;8024;48.708;9.394;2022-12-07T14:59:41;5.20;;;4.70;;
15848;SDS011;8024;48.708;9.394;2022-12-07T15:02:09;5.40;;;4.83;;
15848;SDS011;8024;48.708;9.394;2022-12-07T15:04:39;6.97;;;5.37;;
15848;SDS011;8024;48.708;9.394;2022-12-07T15:07:09;7.47;;;4.70;;
15848;SDS011;8024;48.708;9.394;2022-12-07T15:09:40;6.47;;;5.17;;
15848;SDS011;8024;48.708;9.394;2022-12-07T15:12:07;5.87;;;5.23;;
15848;SDS011;8024;48.708;9.394;2022-12-07T15:14:34;5.97;;;5.37;;
15848;SDS011;8024;48.708;9.394;2022-12-07T15:17:02;6.27;;;5.00;;
15848;SDS011;8024;48.708;9.394;2022-12-07T15:19:29;5.60;;;4.97;;
15848;SDS011;8024;48.708;9.394;2022-12-07T15:21:57;5.80;;;5.13;;
15848;SDS011;8024;48.708;9.394;2022-12-07T15:24:25;6.57;;;5.03;;
15848;SDS011;8024;48.708;9.394;2022-12-07T15:26:52;5.70;;;5.03;;
15848;SDS011;8024;48.708;9.394;2022-12-07T15:29:20;6.87;;;5.23;;
15848;SDS011;8024;48.708;9.394;2022-12-07T15:31:47;5.47;;;4.90;;
15848;SDS011;8024;48.708;9.394;2022-12-07T15:34:15;5.30;;;4.80;;
15848;SDS011;8024;48.708;9.394;2022-12-07T15:36:42;5.97;;;4.30;;
15848;SDS011;8024;48.708;9.394;2022-12-07T15:39:11;6.07;;;5.00;;
15848;SDS011;8024;48.708;9.394;2022-12-07T15:41:38;5.73;;;4.83;;
15848;SDS011;8024;48.708;9.394;2022-12-07T15:44:05;7.97;;;5.10;;
15848;SDS011;8024;48.708;9.394;2022-12-07T15:46:52;6.67;;;5.37;;
15848;SDS011;8024;48.708;9.394;2022-12-07T15:49:19;6.80;;;5.70;;